Time;durP1;ratioP1;P1;durP2;ratioP2;P2;SDS_P1;SDS_P2;PMS_P1;PMS_P2;Temp;Humidity;BMP_temperature;BMP_pressure;BME280_temperature;BME280_humidity;BME280_pressure;Samples;Min_cycle;Max_cycle;Signal;HPM_P1;HPM_P2
2022/05/22 00:02:19;;;;;;;2.85;1.40;;;;;;;14.40;61.55;97435.47;4917170;28;20489;-80
2022/05/22 00:04:45;;;;;;;2.90;1.40;;;;;;;14.32;61.75;97428.13;4913817;28;20188;-81
2022/05/22 00:07:10;;;;;;;3.22;1.73;;;;;;;14.33;62.28;97432.31;4929934;28;20212;-80
2022/05/22 00:09:36;;;;;;;3.25;1.50;;;;;;;14.27;62.12;97435.97;4925812;28;20205;-80
2022/05/22 00:12:03;;;;;;;1.92;1.58;;;;;;;14.24;62.23;97428.66;4894459;28;20655;-81
2022/05/22 00:14:29;;;;;;;3.05;1.30;;;;;;;14.31;62.58;97431.81;4894557;28;20164;-80
2022/05/22 00:16:55;;;;;;;2.50;1.40;;;;;;;14.29;62.82;97423.44;4910186;28;20209;-80
2022/05/22 00:19:22;;;;;;;2.15;1.10;;;;;;;14.26;62.71;97412.66;4892277;28;20238;-80
2022/05/22 00:21:49;;;;;;;2.38;1.58;;;;;;;14.21;62.50;97413.47;4910007;28;20250;-80
2022/05/22 00:24:15;;;;;;;1.60;1.30;;;;;;;14.12;62.43;97404.53;4910603;28;20255;-80
2022/05/22 00:26:40;;;;;;;1.38;1.10;;;;;;;14.17;62.55;97415.03;4913652;28;20272;-80
2022/05/22 00:29:06;;;;;;;1.63;1.40;;;;;;;14.14;62.44;97424.19;4929207;28;20196;-81
2022/05/22 00:31:32;;;;;;;3.78;1.40;;;;;;;14.10;63.14;97424.97;4929376;28;20245;-80
2022/05/22 00:33:58;;;;;;;1.30;1.15;;;;;;;14.05;62.64;97423.13;4929950;28;20283;-81
2022/05/22 00:36:23;;;;;;;1.55;1.20;;;;;;;14.02;62.59;97429.69;4893621;28;20234;-81
2022/05/22 00:38:49;;;;;;;2.35;1.50;;;;;;;14.06;62.56;97419.47;4909651;28;20267;-80
2022/05/22 00:41:14;;;;;;;2.03;1.20;;;;;;;14.07;62.68;97423.66;4909971;28;20201;-80
2022/05/22 00:43:43;;;;;;;2.33;1.10;;;;;;;13.98;62.07;97428.63;4908163;28;20277;-80
2022/05/22 00:46:14;;;;;;;1.50;1.20;;;;;;;13.94;62.16;97424.94;4909616;28;20359;-81
2022/05/22 00:48:43;;;;;;;1.80;1.15;;;;;;;13.86;62.59;97430.69;4892038;28;20168;-81
2022/05/22 00:51:13;;;;;;;3.97;1.38;;;;;;;13.73;62.46;97436.44;4908461;28;20247;-81
2022/05/22 00:53:41;;;;;;;1.17;1.08;;;;;;;13.77;62.18;97437.47;4910730;28;20269;-81
2022/05/22 00:56:10;;;;;;;2.10;1.10;;;;;;;13.62;63.37;97420.72;4909305;28;20281;-81
2022/05/22 00:58:36;;;;;;;3.70;1.20;;;;;;;13.67;63.55;97423.34;4893469;28;20726;-80
2022/05/22 01:01:03;;;;;;;1.50;1.35;;;;;;;13.72;63.14;97414.69;4906651;28;20263;-80
2022/05/22 01:03:28;;;;;;;1.20;1.10;;;;;;;13.76;62.57;97425.44;4909650;28;20228;-81
2022/05/22 01:06:05;;;;;;;4.05;1.33;;;;;;;13.58;63.02;97427.47;4928472;28;20146;-80
2022/05/22 01:08:32;;;;;;;2.47;1.33;;;;;;;13.68;62.90;97430.13;4909620;28;20292;-81
2022/05/22 01:11:10;;;;;;;1.45;1.20;;;;;;;13.62;63.10;97430.38;4897091;28;20608;-81
2022/05/22 01:13:39;;;;;;;2.70;1.35;;;;;;;13.60;63.15;97432.47;4913229;28;20272;-80
2022/05/22 01:16:05;;;;;;;2.17;1.25;;;;;;;13.60;63.25;97425.38;4925630;28;20781;-80
2022/05/22 01:18:43;;;;;;;2.95;1.45;;;;;;;13.47;63.83;97420.66;4877109;28;20257;-80
2022/05/22 01:21:16;;;;;;;1.80;1.10;;;;;;;13.48;63.94;97412.53;4892488;28;20192;-80
2022/05/22 01:23:42;;;;;;;3.20;1.23;;;;;;;13.65;63.04;97419.41;4928649;28;20200;-81
2022/05/22 01:26:08;;;;;;;1.98;1.30;;;;;;;13.66;63.32;97413.91;4928630;28;20162;-81
2022/05/22 01:28:33;;;;;;;1.10;0.98;;;;;;;13.62;63.70;97405.00;4924995;28;20273;-80
2022/05/22 01:31:00;;;;;;;3.85;1.20;;;;;;;13.64;63.71;97408.16;4928600;28;20288;-80
2022/05/22 01:33:26;;;;;;;1.08;0.95;;;;;;;13.58;63.62;97398.72;4896461;28;20217;-80
2022/05/22 01:35:51;;;;;;;1.67;1.40;;;;;;;13.66;63.23;97403.44;4921429;28;20418;-81
2022/05/22 01:38:17;;;;;;;3.15;1.27;;;;;;;13.61;63.37;97400.81;4926369;28;20509;-81
2022/05/22 01:40:42;;;;;;;1.67;1.10;;;;;;;13.64;63.02;97404.72;4892710;28;20217;-81
2022/05/22 01:43:08;;;;;;;2.58;1.15;;;;;;;13.62;63.14;97396.34;4892914;28;20289;-81
2022/05/22 01:45:33;;;;;;;1.52;1.25;;;;;;;13.55;63.26;97393.97;4874756;28;20175;-81
2022/05/22 01:47:59;;;;;;;1.60;1.35;;;;;;;13.57;63.15;97388.50;4891857;28;20635;-81
2022/05/22 01:50:24;;;;;;;2.53;1.27;;;;;;;13.59;63.39;97384.59;4908976;28;20766;-80
2022/05/22 01:52:50;;;;;;;2.25;1.30;;;;;;;13.63;63.30;97390.09;4892937;28;20190;-81
2022/05/22 01:55:16;;;;;;;2.15;1.15;;;;;;;13.62;63.01;97386.69;4894495;28;20194;-81
2022/05/22 01:57:41;;;;;;;3.33;1.33;;;;;;;13.78;62.69;97397.19;4941056;28;20622;-81
2022/05/22 02:00:11;;;;;;;4.30;1.45;;;;;;;13.74;62.44;97393.50;4928204;28;20248;-80
2022/05/22 02:02:39;;;;;;;3.20;1.60;;;;;;;13.69;62.55;97386.44;4927937;28;20278;-80
2022/05/22 02:05:11;;;;;;;1.83;1.08;;;;;;;13.61;63.30;97390.34;4931951;28;20411;-80
2022/05/22 02:10:31;;;;;;;1.60;0.88;;;;;;;13.64;62.44;97375.94;4920162;28;20469;-80
2022/05/22 02:13:00;;;;;;;1.25;1.02;;;;;;;13.61;62.77;97364.19;4895137;28;20185;-80
2022/05/22 02:15:26;;;;;;;2.00;0.95;;;;;;;13.57;62.71;97367.56;4914121;28;20715;-81
2022/05/22 02:17:53;;;;;;;3.42;1.30;;;;;;;13.48;63.21;97367.28;4925538;28;20200;-81
2022/05/22 02:20:20;;;;;;;2.35;1.08;;;;;;;13.45;63.53;97362.56;4934338;28;20834;-81
2022/05/22 02:22:49;;;;;;;1.30;1.10;;;;;;;13.41;63.32;97354.44;4951791;28;20140;-81
2022/05/22 02:25:20;;;;;;;2.53;1.10;;;;;;;13.40;63.24;97342.44;4927630;28;20198;-80
2022/05/22 02:27:46;;;;;;;2.08;1.48;;;;;;;13.44;62.86;97346.09;4915668;28;20601;-81
2022/05/22 02:30:14;;;;;;;2.15;1.35;;;;;;;13.29;63.06;97348.63;4916246;28;20215;-80
2022/05/22 02:32:41;;;;;;;2.13;1.23;;;;;;;13.24;63.60;97335.56;4931807;28;20186;-81
2022/05/22 02:35:10;;;;;;;3.90;1.00;;;;;;;13.22;63.65;97335.03;4931380;28;20193;-80
2022/05/22 02:37:47;;;;;;;3.33;2.10;;;;;;;13.21;63.46;97347.31;4914351;28;20111;-80
2022/05/22 02:40:15;;;;;;;2.45;1.30;;;;;;;13.23;63.53;97332.16;4899626;28;20213;-80
2022/05/22 02:42:46;;;;;;;1.83;1.73;;;;;;;13.21;63.56;97342.09;4904381;28;20280;-81
2022/05/22 02:45:14;;;;;;;1.88;1.15;;;;;;;13.22;63.43;97330.56;4902670;28;20209;-80
2022/05/22 02:47:39;;;;;;;2.22;1.30;;;;;;;13.24;63.50;97330.31;4919428;28;20099;-80
2022/05/22 02:50:07;;;;;;;2.30;1.33;;;;;;;13.23;63.63;97332.16;4896102;28;20188;-80
2022/05/22 02:52:32;;;;;;;3.00;1.30;;;;;;;13.19;64.00;97333.69;4899254;28;20187;-80
2022/05/22 02:54:58;;;;;;;3.92;1.75;;;;;;;13.17;63.67;97338.41;4935339;28;20245;-81
2022/05/22 02:57:25;;;;;;;1.73;1.13;;;;;;;13.13;63.71;97329.50;4915457;28;20499;-81
2022/05/22 02:59:54;;;;;;;2.25;1.73;;;;;;;13.13;63.43;97332.13;4927361;28;20677;-81
2022/05/22 03:02:20;;;;;;;2.70;1.30;;;;;;;13.14;63.79;97335.53;4916429;28;20789;-81
2022/05/22 03:04:50;;;;;;;1.38;1.27;;;;;;;13.11;64.07;97339.44;4880349;28;20211;-81
2022/05/22 03:07:18;;;;;;;2.83;1.40;;;;;;;13.10;63.81;97340.47;4864417;28;20294;-80
2022/05/22 03:09:45;;;;;;;1.50;1.27;;;;;;;13.08;64.29;97327.66;4906216;28;20189;-81
2022/05/22 03:12:15;;;;;;;2.85;1.52;;;;;;;13.00;63.79;97329.97;4916630;28;20197;-81
2022/05/22 03:14:47;;;;;;;4.05;1.52;;;;;;;12.99;63.77;97315.34;4919001;28;20201;-81
2022/05/22 03:17:12;;;;;;;2.47;1.45;;;;;;;13.02;63.87;97304.38;4914828;28;20201;-80
2022/05/22 03:19:38;;;;;;;1.77;1.10;;;;;;;13.01;63.67;97315.88;4933869;28;20158;-81
2022/05/22 03:22:05;;;;;;;2.05;1.52;;;;;;;12.98;64.22;97313.78;4933945;28;20207;-81
2022/05/22 03:24:31;;;;;;;1.20;1.10;;;;;;;13.02;63.34;97317.44;4934377;28;20551;-81
2022/05/22 03:26:57;;;;;;;2.75;1.40;;;;;;;13.01;63.80;97308.03;4931493;28;20209;-80
2022/05/22 03:29:23;;;;;;;1.98;1.20;;;;;;;13.00;63.92;97311.69;4917883;28;20316;-81
2022/05/22 03:31:49;;;;;;;1.48;1.30;;;;;;;13.10;63.76;97306.50;4918022;28;20197;-81
2022/05/22 03:34:15;;;;;;;2.00;1.13;;;;;;;13.07;64.18;97305.19;4916195;28;20216;-80
2022/05/22 03:36:41;;;;;;;1.75;1.20;;;;;;;13.04;63.80;97294.44;4933991;28;20163;-80
2022/05/22 03:39:08;;;;;;;2.63;1.70;;;;;;;13.04;64.16;97292.63;4894758;28;20191;-81
2022/05/22 03:41:35;;;;;;;2.72;1.45;;;;;;;13.04;63.68;97300.47;4914237;28;20033;-81
2022/05/22 03:44:01;;;;;;;1.77;1.40;;;;;;;13.08;63.90;97290.28;4914306;28;20180;-80
2022/05/22 03:46:27;;;;;;;1.88;1.42;;;;;;;13.07;64.12;97296.53;4912922;28;20579;-81
2022/05/22 03:48:52;;;;;;;2.90;1.35;;;;;;;13.09;64.40;97300.50;4887472;28;20201;-81
2022/05/22 03:51:17;;;;;;;2.28;1.40;;;;;;;13.10;64.31;97288.19;4893881;28;20206;-81
2022/05/22 03:53:43;;;;;;;2.22;1.50;;;;;;;13.15;64.57;97295.28;4910460;28;20295;-81
2022/05/22 03:56:16;;;;;;;2.42;1.40;;;;;;;12.97;64.44;97293.91;4897994;28;20276;-81
2022/05/22 03:58:42;;;;;;;3.83;1.45;;;;;;;13.14;63.98;97289.25;4927941;28;20745;-81
2022/05/22 04:01:08;;;;;;;2.60;1.90;;;;;;;13.18;64.19;97281.66;4910407;28;20281;-81
2022/05/22 04:03:34;;;;;;;3.10;1.60;;;;;;;13.20;64.15;97292.66;4925518;28;20488;-80
2022/05/22 04:06:01;;;;;;;1.70;1.20;;;;;;;13.18;64.07;97290.31;4909964;28;20342;-81
2022/05/22 04:08:28;;;;;;;2.03;1.40;;;;;;;13.22;63.82;97280.91;4926385;28;20218;-81
2022/05/22 04:10:54;;;;;;;2.15;1.58;;;;;;;13.27;63.32;97280.91;4926824;28;20341;-81
2022/05/22 04:13:19;;;;;;;1.17;1.08;;;;;;;13.31;63.44;97273.31;4914581;28;20313;-81
2022/05/22 04:15:46;;;;;;;1.25;1.10;;;;;;;13.35;63.39;97279.66;4910230;28;20245;-81
2022/05/22 04:18:12;;;;;;;1.75;1.23;;;;;;;13.39;63.62;97280.69;4909972;28;20643;-81
2022/05/22 04:20:38;;;;;;;1.73;1.30;;;;;;;13.43;63.60;97279.13;4908551;28;20698;-81
2022/05/22 04:25:53;;;;;;;1.67;1.50;;;;;;;13.40;64.20;97276.25;4896908;28;20706;-81
2022/05/22 04:28:19;;;;;;;2.53;1.70;;;;;;;13.60;63.99;97271.03;4903283;28;20143;-80
2022/05/22 04:30:44;;;;;;;1.38;1.27;;;;;;;13.65;64.17;97257.94;4906140;28;20278;-80
2022/05/22 04:33:09;;;;;;;2.00;1.58;;;;;;;13.76;64.20;97258.75;4895364;28;20246;-80
2022/05/22 04:35:37;;;;;;;1.85;1.30;;;;;;;13.88;63.87;97263.72;4894850;28;20297;-80
2022/05/22 04:38:03;;;;;;;1.25;1.15;;;;;;;13.97;63.84;97253.50;4932311;28;20228;-81
2022/05/22 04:40:28;;;;;;;2.28;1.30;;;;;;;14.07;63.82;97255.31;4928771;28;20264;-81
2022/05/22 04:42:53;;;;;;;3.10;1.98;;;;;;;14.11;63.46;97243.28;4913484;28;20286;-80
2022/05/22 04:45:19;;;;;;;2.15;1.60;;;;;;;14.16;63.73;97251.13;4910199;28;20615;-80
2022/05/22 04:47:44;;;;;;;1.45;1.35;;;;;;;14.22;63.23;97250.84;4883308;28;20189;-80
2022/05/22 04:50:12;;;;;;;2.20;1.65;;;;;;;14.28;63.65;97237.72;4913355;28;20236;-80
2022/05/22 04:52:38;;;;;;;1.67;1.58;;;;;;;14.37;63.77;97242.13;4929210;28;20523;-80
2022/05/22 04:55:05;;;;;;;2.92;1.70;;;;;;;14.50;64.22;97234.78;4911401;28;20202;-80
2022/05/22 04:57:30;;;;;;;3.15;1.60;;;;;;;14.64;64.47;97230.56;4908912;28;20213;-80
2022/05/22 04:59:55;;;;;;;1.42;1.33;;;;;;;14.78;63.82;97225.50;4892949;28;20202;-80
2022/05/22 05:02:23;;;;;;;1.75;1.23;;;;;;;14.90;63.53;97223.34;4915519;28;20247;-80
2022/05/22 05:04:48;;;;;;;3.78;1.65;;;;;;;15.08;62.61;97221.94;4896047;28;20259;-80
2022/05/22 05:07:13;;;;;;;2.22;1.50;;;;;;;15.19;62.20;97235.75;4911546;28;20212;-81
2022/05/22 05:09:39;;;;;;;1.55;1.42;;;;;;;15.24;62.10;97234.97;4927482;28;20415;-81
2022/05/22 05:12:05;;;;;;;2.35;1.27;;;;;;;15.27;61.45;97237.81;4927895;28;20212;-81
2022/05/22 05:14:31;;;;;;;1.30;1.20;;;;;;;15.32;61.31;97242.25;4896156;28;20717;-80
2022/05/22 05:16:56;;;;;;;2.42;1.60;;;;;;;15.29;61.27;97245.41;4945610;28;20367;-81
2022/05/22 05:19:22;;;;;;;1.35;1.15;;;;;;;15.39;61.02;97247.97;4927041;28;20247;-81
2022/05/22 05:21:47;;;;;;;2.60;1.20;;;;;;;15.48;61.06;97250.78;4911728;28;20193;-80
2022/05/22 05:24:12;;;;;;;2.25;1.63;;;;;;;15.60;61.08;97255.69;4896058;28;20201;-80
2022/05/22 05:26:38;;;;;;;2.03;1.50;;;;;;;15.68;60.95;97261.13;4911925;28;20731;-80
2022/05/22 05:29:03;;;;;;;2.47;1.83;;;;;;;15.79;61.17;97258.47;4895930;28;20189;-80
2022/05/22 05:31:29;;;;;;;2.17;1.42;;;;;;;15.88;61.98;97252.31;4911742;28;20346;-80
2022/05/22 05:33:54;;;;;;;3.45;2.13;;;;;;;15.95;62.04;97253.84;4896420;28;20260;-80
2022/05/22 05:36:20;;;;;;;1.85;1.27;;;;;;;16.12;61.62;97262.09;4928448;28;20233;-80
2022/05/22 05:38:45;;;;;;;1.80;1.15;;;;;;;16.28;60.96;97260.88;4927360;28;20193;-80
2022/05/22 05:41:11;;;;;;;1.45;1.20;;;;;;;16.45;60.74;97275.41;4911803;28;20247;-80
2022/05/22 05:43:37;;;;;;;1.77;1.30;;;;;;;16.59;60.07;97271.06;4911399;28;20204;-79
2022/05/22 05:46:02;;;;;;;3.42;1.67;;;;;;;16.65;58.71;97269.91;4912197;28;20253;-80
2022/05/22 05:48:28;;;;;;;2.00;1.50;;;;;;;16.79;58.43;97285.00;4898701;28;20323;-80
2022/05/22 05:50:55;;;;;;;1.80;1.70;;;;;;;16.88;58.01;97282.56;4911687;28;20249;-80
2022/05/22 05:53:21;;;;;;;1.95;1.45;;;;;;;17.02;58.00;97281.59;4929520;28;20289;-79
2022/05/22 05:55:47;;;;;;;2.08;1.52;;;;;;;17.15;58.21;97280.13;4931579;28;20203;-80
2022/05/22 05:58:13;;;;;;;2.33;1.00;;;;;;;17.27;58.17;97279.69;4913499;28;20242;-80
2022/05/22 06:00:38;;;;;;;1.77;1.50;;;;;;;17.42;58.14;97270.78;4913691;28;20367;-80
2022/05/22 06:03:03;;;;;;;1.50;1.20;;;;;;;17.58;58.07;97273.97;4943441;28;20186;-80
2022/05/22 06:05:29;;;;;;;6.88;2.00;;;;;;;17.73;58.30;97270.31;4932419;28;20213;-79
2022/05/22 06:07:54;;;;;;;1.67;1.40;;;;;;;17.88;57.97;97277.22;4916544;28;20213;-80
2022/05/22 06:10:20;;;;;;;1.35;1.25;;;;;;;17.99;57.58;97267.28;4916914;28;20307;-79
2022/05/22 06:12:46;;;;;;;2.72;1.40;;;;;;;18.10;56.50;97272.09;4916989;28;20095;-79
2022/05/22 06:15:13;;;;;;;2.55;1.38;;;;;;;18.29;56.33;97268.63;4933310;28;20193;-80
2022/05/22 06:17:44;;;;;;;1.50;1.40;;;;;;;18.45;56.59;97261.19;4931745;28;20224;-80
2022/05/22 06:20:12;;;;;;;2.15;1.35;;;;;;;18.64;56.34;97274.28;4916882;28;20212;-80
2022/05/22 06:22:38;;;;;;;1.65;1.10;;;;;;;18.77;55.78;97273.47;4932305;28;20263;-80
2022/05/22 06:25:06;;;;;;;2.75;1.90;;;;;;;18.80;55.78;97272.91;4949792;28;20580;-80
2022/05/22 06:27:31;;;;;;;1.75;1.20;;;;;;;18.99;55.46;97275.44;4932345;28;20277;-80
2022/05/22 06:29:57;;;;;;;1.50;1.40;;;;;;;19.12;54.74;97276.47;4950163;28;20308;-80
2022/05/22 06:32:23;;;;;;;2.47;1.67;;;;;;;19.30;54.02;97287.97;4915837;28;20540;-80
2022/05/22 06:34:48;;;;;;;1.90;1.20;;;;;;;19.53;53.04;97280.06;4916370;28;20303;-80
2022/05/22 06:37:18;;;;;;;2.58;1.42;;;;;;;19.63;54.07;97277.19;4916044;28;20687;-80
2022/05/22 06:39:53;;;;;;;2.03;1.30;;;;;;;19.98;52.49;97275.56;4932312;28;20192;-80
2022/05/22 06:42:28;;;;;;;1.60;1.27;;;;;;;20.09;53.09;97272.69;4933203;28;20193;-80
2022/05/22 06:45:04;;;;;;;2.05;1.25;;;;;;;20.16;51.92;97270.38;4931974;28;20185;-79
2022/05/22 06:47:30;;;;;;;2.38;1.45;;;;;;;20.48;50.21;97271.13;4925205;28;20640;-79
2022/05/22 06:49:57;;;;;;;1.83;1.05;;;;;;;20.43;50.49;97268.63;4913229;28;20171;-79
2022/05/22 06:52:23;;;;;;;2.92;1.05;;;;;;;20.61;49.35;97259.63;4912616;28;20748;-79
2022/05/22 06:54:49;;;;;;;2.72;1.45;;;;;;;20.74;49.02;97266.72;4913924;28;20214;-78
2022/05/22 06:57:17;;;;;;;1.40;1.30;;;;;;;20.64;48.46;97267.00;4928424;28;20691;-79
2022/05/22 06:59:44;;;;;;;1.90;1.15;;;;;;;20.94;48.08;97260.06;4912435;28;20262;-79
2022/05/22 07:02:10;;;;;;;3.17;1.40;;;;;;;21.27;48.14;97264.91;4917075;28;20176;-79
2022/05/22 07:04:35;;;;;;;1.65;1.55;;;;;;;21.71;47.62;97267.53;4932276;28;20596;-80
2022/05/22 07:07:01;;;;;;;2.15;1.20;;;;;;;22.03;46.92;97268.88;4931712;28;20178;-79
2022/05/22 07:09:27;;;;;;;2.28;1.33;;;;;;;21.87;46.23;97268.59;4931104;28;20204;-79
2022/05/22 07:11:55;;;;;;;2.55;1.38;;;;;;;21.94;45.63;97264.69;4949412;28;20213;-79
2022/05/22 07:14:23;;;;;;;1.77;1.25;;;;;;;22.25;45.48;97264.44;4933059;28;20579;-78
2022/05/22 07:16:49;;;;;;;1.30;1.20;;;;;;;22.25;44.99;97259.91;4931534;28;20363;-79
2022/05/22 07:19:16;;;;;;;3.15;1.30;;;;;;;22.30;44.36;97250.25;4931315;28;20295;-79
2022/05/22 07:21:41;;;;;;;1.60;1.50;;;;;;;22.75;44.89;97255.00;4931398;28;20158;-79
2022/05/22 07:24:07;;;;;;;3.15;1.40;;;;;;;22.76;45.03;97252.03;4931027;28;20658;-79
2022/05/22 07:26:32;;;;;;;2.42;1.58;;;;;;;22.97;44.09;97251.28;4915540;28;20300;-79
2022/05/22 07:28:58;;;;;;;2.83;1.30;;;;;;;23.10;43.43;97244.16;4930886;28;20170;-79
2022/05/22 07:31:25;;;;;;;2.00;1.48;;;;;;;23.36;42.71;97251.94;4930979;28;20274;-79
2022/05/22 07:33:50;;;;;;;1.65;1.05;;;;;;;23.57;42.20;97251.91;4931608;28;20288;-80
2022/05/22 07:36:17;;;;;;;1.33;1.20;;;;;;;23.61;41.93;97244.06;4915711;28;20338;-80
2022/05/22 07:38:43;;;;;;;4.93;1.30;;;;;;;23.69;41.70;97243.97;4930651;28;20749;-80
2022/05/22 07:41:09;;;;;;;2.50;1.10;;;;;;;23.87;40.98;97244.59;4930876;28;20647;-80
2022/05/22 07:43:34;;;;;;;1.67;1.10;;;;;;;23.87;40.98;97243.81;4914604;28;20279;-80
2022/05/22 07:45:59;;;;;;;2.03;1.13;;;;;;;23.90;40.56;97233.28;4914767;28;20170;-80
2022/05/22 07:48:25;;;;;;;1.42;1.20;;;;;;;24.10;39.75;97225.56;4923355;28;20229;-80
2022/05/22 07:50:55;;;;;;;1.63;1.15;;;;;;;24.39;38.83;97226.47;4911303;28;20291;-79
2022/05/22 07:53:20;;;;;;;2.25;1.10;;;;;;;24.63;37.42;97223.81;4896450;28;20277;-79
2022/05/22 07:55:45;;;;;;;1.48;1.10;;;;;;;24.70;37.47;97217.91;4913152;28;20285;-79
2022/05/22 07:58:11;;;;;;;1.88;1.20;;;;;;;24.36;38.08;97216.47;4894614;28;20637;-79
2022/05/22 08:00:36;;;;;;;1.55;1.20;;;;;;;23.99;39.59;97211.13;4880575;28;20276;-78
2022/05/22 08:03:09;;;;;;;2.15;1.55;;;;;;;23.84;37.87;97204.59;4925223;28;20275;-78
2022/05/22 08:05:34;;;;;;;2.08;1.33;;;;;;;24.57;38.71;97211.06;4931076;28;20646;-78
2022/05/22 08:08:00;;;;;;;1.40;1.10;;;;;;;25.19;37.20;97206.34;4930349;28;20369;-80
2022/05/22 08:10:25;;;;;;;1.85;1.20;;;;;;;25.34;35.61;97210.97;4949069;28;20279;-81
2022/05/22 08:12:50;;;;;;;2.05;1.00;;;;;;;25.24;35.31;97208.75;4931262;28;20646;-80
2022/05/22 08:15:19;;;;;;;1.80;0.88;;;;;;;25.31;35.00;97209.00;4929994;28;20288;-80
2022/05/22 08:17:44;;;;;;;2.33;1.00;;;;;;;25.50;37.03;97202.22;4931263;28;20636;-78
2022/05/22 08:20:13;;;;;;;2.15;1.23;;;;;;;25.73;37.08;97207.78;4948883;28;20197;-78
2022/05/22 08:22:48;;;;;;;2.05;1.00;;;;;;;26.05;36.70;97199.81;4930723;28;20196;-79
2022/05/22 08:25:15;;;;;;;;;;;;;;;26.17;34.19;97192.47;4931916;28;20329;-79
2022/05/22 08:27:40;;;;;;;1.73;1.08;;;;;;;26.59;35.26;97201.78;4929896;28;20042;-78
2022/05/22 08:30:09;;;;;;;2.15;0.98;;;;;;;26.76;34.17;97199.88;4931262;28;20242;-79
2022/05/22 08:32:39;;;;;;;2.65;0.90;;;;;;;27.07;35.24;97198.97;4929936;28;20275;-79
2022/05/22 08:35:06;;;;;;;1.48;0.90;;;;;;;27.23;34.77;97197.00;4948288;28;20353;-79
2022/05/22 08:37:33;;;;;;;2.10;1.00;;;;;;;26.78;33.03;97194.94;4928770;28;20458;-78
2022/05/22 08:39:59;;;;;;;1.67;1.25;;;;;;;26.20;33.48;97191.03;4914950;28;20251;-79
2022/05/22 08:42:32;;;;;;;1.10;0.80;;;;;;;26.21;33.65;97187.22;4930356;28;20592;-78
2022/05/22 08:44:57;;;;;;;2.35;1.15;;;;;;;26.41;34.32;97187.25;4914646;28;20321;-79
2022/05/22 08:47:37;;;;;;;1.17;1.05;;;;;;;26.43;32.92;97179.69;4902546;28;20292;-79
2022/05/22 08:50:07;;;;;;;1.83;1.13;;;;;;;26.72;33.05;97176.53;4909823;28;20280;-79
2022/05/22 08:52:38;;;;;;;2.78;1.30;;;;;;;27.06;33.20;97171.47;4911214;28;20264;-78
2022/05/22 08:55:19;;;;;;;1.33;0.90;;;;;;;27.16;33.20;97159.44;4911162;28;20202;-78
2022/05/22 09:00:49;;;;;;;2.08;1.40;;;;;;;28.11;29.23;97160.69;4926657;28;20263;-80
2022/05/22 09:03:15;;;;;;;1.55;1.08;;;;;;;27.67;30.94;97165.69;4908279;28;20658;-77
2022/05/22 09:05:40;;;;;;;1.20;1.05;;;;;;;27.86;30.46;97159.50;4930026;28;20289;-77
2022/05/22 09:08:19;;;;;;;1.58;1.00;;;;;;;28.05;29.17;97162.09;4929220;28;20264;-77
2022/05/22 09:11:08;;;;;;;1.92;1.20;;;;;;;27.66;31.44;97164.94;4928652;28;20276;-75
2022/05/22 09:13:45;;;;;;;2.35;1.20;;;;;;;28.01;31.05;97158.63;4912741;28;20287;-77
2022/05/22 09:16:43;;;;;;;1.40;0.88;;;;;;;28.17;29.99;97159.25;4912998;28;20189;-76
2022/05/22 09:19:28;;;;;;;1.50;0.90;;;;;;;28.12;30.94;97161.44;4927999;28;20182;-76
2022/05/22 09:22:02;;;;;;;2.70;1.10;;;;;;;27.66;32.32;97148.88;4947451;28;20263;-77
2022/05/22 09:24:37;;;;;;;2.17;1.50;;;;;;;27.88;30.09;97154.56;4929584;28;20356;-78
2022/05/22 09:27:02;;;;;;;1.48;1.13;;;;;;;28.13;29.29;97155.72;4913588;28;20396;-79
2022/05/22 09:29:39;;;;;;;1.65;1.08;;;;;;;28.07;29.30;97157.19;4929095;28;20263;-78
2022/05/22 09:32:43;;;;;;;1.05;0.90;;;;;;;28.25;28.37;97151.31;4929014;28;20154;-80
2022/05/22 09:35:30;;;;;;;1.02;1.02;;;;;;;27.87;29.03;97145.00;4913809;28;20289;-80
2022/05/22 09:38:05;;;;;;;1.00;0.95;;;;;;;27.75;30.27;97146.72;4948051;28;20244;-79
2022/05/22 09:40:37;;;;;;;0.85;0.85;;;;;;;28.37;28.30;97143.06;4928569;28;20283;-80
2022/05/22 09:43:26;;;;;;;1.40;1.10;;;;;;;27.60;31.41;97134.25;4930838;28;20242;-77
2022/05/22 09:46:03;;;;;;;1.40;0.90;;;;;;;27.27;30.04;97130.22;4930577;28;20364;-76
2022/05/22 09:48:51;;;;;;;1.98;1.00;;;;;;;27.68;30.33;97132.47;4899700;28;20187;-77
2022/05/22 09:51:32;;;;;;;1.10;0.77;;;;;;;27.97;29.03;97125.69;4925813;28;20291;-80
2022/05/22 09:54:18;;;;;;;1.48;0.88;;;;;;;28.28;28.15;97134.53;4895103;28;20303;-79
2022/05/22 09:57:00;;;;;;;1.38;1.27;;;;;;;28.50;29.20;97141.72;4928729;28;20183;-77
2022/05/22 09:59:49;;;;;;;1.23;0.95;;;;;;;28.80;28.46;97124.84;4927818;28;20178;-78
2022/05/22 10:02:27;;;;;;;2.63;0.82;;;;;;;29.24;27.72;97118.84;4889447;28;20174;-79
2022/05/22 10:05:21;;;;;;;1.48;1.00;;;;;;;29.35;28.18;97120.84;4928970;28;20333;-78
2022/05/22 10:08:13;;;;;;;1.60;1.10;;;;;;;28.72;28.80;97101.78;4913144;28;20251;-77
2022/05/22 10:10:45;;;;;;;1.85;1.13;;;;;;;28.50;28.70;97096.19;4948089;28;20271;-77
2022/05/22 10:13:15;;;;;;;1.83;1.02;;;;;;;28.93;27.06;97094.00;4929314;28;20285;-78
2022/05/22 10:15:52;;;;;;;1.40;1.10;;;;;;;29.47;25.50;97099.09;4929874;28;20587;-78
2022/05/22 10:18:49;;;;;;;1.67;0.90;;;;;;;28.68;27.27;97103.69;4912590;28;20249;-76
2022/05/22 10:21:26;;;;;;;2.33;0.98;;;;;;;28.31;27.02;97101.66;4929873;28;20217;-77
2022/05/22 10:24:09;;;;;;;2.35;0.93;;;;;;;28.46;27.17;97098.03;4913437;28;20189;-76
2022/05/22 10:26:50;;;;;;;1.38;0.88;;;;;;;28.72;25.31;97091.06;4929397;28;20399;-76
2022/05/22 10:29:23;;;;;;;1.15;0.80;;;;;;;28.58;26.07;97095.16;4914146;28;20217;-77
2022/05/22 10:32:10;;;;;;;1.60;0.80;;;;;;;28.85;24.74;97081.66;4928888;28;20171;-77
2022/05/22 10:34:43;;;;;;;0.80;0.80;;;;;;;29.17;24.82;97085.81;4929228;28;20285;-77
2022/05/22 10:37:29;;;;;;;1.00;0.90;;;;;;;28.64;28.20;97084.88;4897164;28;20217;-78
2022/05/22 10:39:57;;;;;;;0.98;0.90;;;;;;;29.11;28.67;97069.28;4932931;28;20213;-77
2022/05/22 10:42:45;;;;;;;2.10;1.33;;;;;;;29.43;26.03;97060.78;4916372;28;20201;-78
2022/05/22 10:45:34;;;;;;;2.40;1.20;;;;;;;29.50;25.96;97052.78;4918786;28;20213;-78
2022/05/22 10:48:12;;;;;;;1.80;1.00;;;;;;;29.51;25.92;97052.41;4914112;28;20288;-77
2022/05/22 10:50:49;;;;;;;1.55;0.85;;;;;;;29.66;25.50;97055.97;4913487;28;20746;-78
2022/05/22 10:53:31;;;;;;;1.25;0.80;;;;;;;29.58;24.08;97051.69;4896514;28;20689;-78
2022/05/22 10:56:25;;;;;;;1.13;0.95;;;;;;;29.64;24.20;97050.19;4913471;28;20262;-78
2022/05/22 10:58:55;;;;;;;0.93;0.93;;;;;;;29.53;24.08;97049.34;4930320;28;20230;-77
2022/05/22 11:01:27;;;;;;;1.80;1.10;;;;;;;30.10;24.14;97051.63;4912822;28;20190;-78
2022/05/22 11:04:07;;;;;;;2.03;1.20;;;;;;;30.17;22.85;97032.84;4893395;28;20369;-77
2022/05/22 11:06:34;;;;;;;2.95;1.17;;;;;;;30.33;24.98;97040.63;4893750;28;20285;-79
2022/05/22 11:08:59;;;;;;;1.48;0.90;;;;;;;30.67;23.55;97029.59;4877588;28;20286;-78
2022/05/22 11:11:26;;;;;;;1.77;0.95;;;;;;;30.74;23.18;97032.31;4892506;28;20215;-77
2022/05/22 11:13:52;;;;;;;2.15;1.17;;;;;;;30.83;23.62;97023.09;4893284;28;20172;-78
2022/05/22 11:16:26;;;;;;;1.25;0.80;;;;;;;30.53;22.94;97024.97;4892979;28;20242;-78
2022/05/22 11:19:25;;;;;;;1.20;1.10;;;;;;;30.04;23.46;97024.38;4877569;28;20218;-78
2022/05/22 11:22:09;;;;;;;1.33;1.08;;;;;;;29.45;25.31;97026.28;4886160;28;20294;-78
2022/05/22 11:24:48;;;;;;;1.60;0.90;;;;;;;29.22;27.76;97021.91;4893421;28;20742;-77
2022/05/22 11:27:28;;;;;;;1.42;0.80;;;;;;;29.33;25.06;97021.97;4892721;28;20092;-77
2022/05/22 11:30:08;;;;;;;1.90;1.00;;;;;;;29.12;25.78;97017.97;4893786;28;20235;-78
2022/05/22 11:32:52;;;;;;;1.30;1.20;;;;;;;29.20;24.76;97026.09;4893113;28;20198;-78
2022/05/22 11:35:38;;;;;;;1.20;1.10;;;;;;;29.00;24.88;97028.22;4910815;28;20762;-79
2022/05/22 11:38:11;;;;;;;1.20;1.10;;;;;;;28.72;26.82;97024.09;4892447;28;20191;-78
2022/05/22 11:40:51;;;;;;;1.40;1.10;;;;;;;28.64;28.53;97019.81;4893857;28;20562;-78
2022/05/22 11:43:31;;;;;;;1.30;1.20;;;;;;;28.57;26.31;97010.56;4893057;28;20172;-77
2022/05/22 11:46:05;;;;;;;1.30;1.00;;;;;;;28.67;26.86;97005.66;4877692;28;20215;-78
2022/05/22 11:48:37;;;;;;;1.85;1.35;;;;;;;28.68;27.22;96997.25;4903693;28;20159;-78
2022/05/22 11:51:21;;;;;;;1.30;1.20;;;;;;;28.69;26.10;96998.81;4930249;28;20202;-79
2022/05/22 11:54:08;;;;;;;2.42;1.70;;;;;;;28.84;27.59;96991.69;4896005;28;20296;-77
2022/05/22 11:56:58;;;;;;;1.27;0.88;;;;;;;29.15;27.14;96976.25;4912411;28;20190;-79